sensor_id;sensor_type;location;lat;lon;timestamp;P1;durP1;ratioP1;P2;durP2;ratioP2
80175;SDS011;69501;42.124;24.722;2023-05-10T00:02:08;3.92;;;3.63;;
80175;SDS011;69501;42.124;24.722;2023-05-10T00:04:34;6.90;;;4.40;;
80175;SDS011;69501;42.124;24.722;2023-05-10T00:07:00;4.93;;;4.18;;
80175;SDS011;69501;42.124;24.722;2023-05-10T00:09:25;7.85;;;4.78;;
80175;SDS011;69501;42.124;24.722;2023-05-10T00:11:51;6.05;;;4.97;;
80175;SDS011;69501;42.124;24.722;2023-05-10T00:14:17;6.90;;;5.07;;
80175;SDS011;69501;42.124;24.722;2023-05-10T00:16:43;5.95;;;5.05;;
80175;SDS011;69501;42.124;24.722;2023-05-10T00:19:08;6.53;;;4.90;;
80175;SDS011;69501;42.124;24.722;2023-05-10T00:21:34;5.70;;;5.07;;
80175;SDS011;69501;42.124;24.722;2023-05-10T00:24:00;8.13;;;5.00;;
80175;SDS011;69501;42.124;24.722;2023-05-10T00:26:25;7.70;;;5.45;;
80175;SDS011;69501;42.124;24.722;2023-05-10T00:28:51;6.38;;;5.25;;
80175;SDS011;69501;42.124;24.722;2023-05-10T00:31:17;6.35;;;4.78;;
80175;SDS011;69501;42.124;24.722;2023-05-10T00:33:42;5.45;;;4.93;;
80175;SDS011;69501;42.124;24.722;2023-05-10T00:36:08;5.32;;;4.93;;
80175;SDS011;69501;42.124;24.722;2023-05-10T00:38:34;5.93;;;4.95;;
80175;SDS011;69501;42.124;24.722;2023-05-10T00:40:59;5.63;;;5.18;;
80175;SDS011;69501;42.124;24.722;2023-05-10T00:43:25;7.72;;;5.65;;
80175;SDS011;69501;42.124;24.722;2023-05-10T00:45:51;7.22;;;4.75;;
80175;SDS011;69501;42.124;24.722;2023-05-10T00:48:17;6.90;;;4.38;;
80175;SDS011;69501;42.124;24.722;2023-05-10T00:50:43;5.68;;;4.50;;
80175;SDS011;69501;42.124;24.722;2023-05-10T00:53:09;8.75;;;4.93;;
80175;SDS011;69501;42.124;24.722;2023-05-10T00:55:35;6.00;;;4.30;;
80175;SDS011;69501;42.124;24.722;2023-05-10T00:58:02;6.55;;;4.43;;
80175;SDS011;69501;42.124;24.722;2023-05-10T01:00:27;4.95;;;4.47;;
80175;SDS011;69501;42.124;24.722;2023-05-10T01:02:54;5.60;;;4.68;;
80175;SDS011;69501;42.124;24.722;2023-05-10T01:05:20;5.07;;;4.63;;
80175;SDS011;69501;42.124;24.722;2023-05-10T01:07:46;5.55;;;4.50;;
80175;SDS011;69501;42.124;24.722;2023-05-10T01:10:11;5.78;;;4.88;;
80175;SDS011;69501;42.124;24.722;2023-05-10T01:12:38;5.25;;;4.40;;
80175;SDS011;69501;42.124;24.722;2023-05-10T01:15:07;6.50;;;4.75;;
80175;SDS011;69501;42.124;24.722;2023-05-10T01:17:36;5.85;;;4.25;;
80175;SDS011;69501;42.124;24.722;2023-05-10T01:20:04;9.20;;;4.35;;
80175;SDS011;69501;42.124;24.722;2023-05-10T01:28:20;8.75;;;4.95;;
80175;SDS011;69501;42.124;24.722;2023-05-10T01:33:59;6.53;;;4.65;;
80175;SDS011;69501;42.124;24.722;2023-05-10T01:36:58;6.38;;;4.40;;
80175;SDS011;69501;42.124;24.722;2023-05-10T01:39:55;6.00;;;4.82;;
80175;SDS011;69501;42.124;24.722;2023-05-10T01:42:23;5.20;;;4.80;;
80175;SDS011;69501;42.124;24.722;2023-05-10T01:47:44;7.30;;;4.63;;
80175;SDS011;69501;42.124;24.722;2023-05-10T01:52:42;4.85;;;4.45;;
80175;SDS011;69501;42.124;24.722;2023-05-10T01:55:14;5.40;;;4.90;;
80175;SDS011;69501;42.124;24.722;2023-05-10T01:57:42;6.38;;;5.30;;
80175;SDS011;69501;42.124;24.722;2023-05-10T02:00:11;7.53;;;5.20;;
80175;SDS011;69501;42.124;24.722;2023-05-10T02:02:39;7.70;;;5.55;;
80175;SDS011;69501;42.124;24.722;2023-05-10T02:05:07;7.43;;;5.90;;
80175;SDS011;69501;42.124;24.722;2023-05-10T02:07:35;6.65;;;5.70;;
80175;SDS011;69501;42.124;24.722;2023-05-10T02:10:02;7.45;;;5.07;;
80175;SDS011;69501;42.124;24.722;2023-05-10T02:12:31;6.80;;;6.13;;
80175;SDS011;69501;42.124;24.722;2023-05-10T02:15:00;6.57;;;6.07;;
80175;SDS011;69501;42.124;24.722;2023-05-10T02:17:30;6.45;;;5.63;;
80175;SDS011;69501;42.124;24.722;2023-05-10T02:19:57;6.10;;;5.60;;
80175;SDS011;69501;42.124;24.722;2023-05-10T02:22:25;6.80;;;5.97;;
80175;SDS011;69501;42.124;24.722;2023-05-10T02:24:52;5.90;;;5.40;;
80175;SDS011;69501;42.124;24.722;2023-05-10T02:27:19;7.57;;;6.25;;
80175;SDS011;69501;42.124;24.722;2023-05-10T02:29:48;6.65;;;6.10;;
80175;SDS011;69501;42.124;24.722;2023-05-10T02:32:16;6.78;;;6.07;;
80175;SDS011;69501;42.124;24.722;2023-05-10T02:34:44;6.43;;;5.93;;
80175;SDS011;69501;42.124;24.722;2023-05-10T02:37:11;7.45;;;5.47;;
80175;SDS011;69501;42.124;24.722;2023-05-10T02:39:39;6.88;;;6.03;;
80175;SDS011;69501;42.124;24.722;2023-05-10T02:42:10;6.70;;;6.13;;
80175;SDS011;69501;42.124;24.722;2023-05-10T02:44:41;6.93;;;5.93;;
80175;SDS011;69501;42.124;24.722;2023-05-10T02:47:08;9.20;;;6.38;;
80175;SDS011;69501;42.124;24.722;2023-05-10T02:49:33;6.40;;;5.90;;
80175;SDS011;69501;42.124;24.722;2023-05-10T02:52:00;6.03;;;5.63;;
80175;SDS011;69501;42.124;24.722;2023-05-10T02:54:31;6.20;;;5.63;;
80175;SDS011;69501;42.124;24.722;2023-05-10T02:57:03;8.70;;;6.43;;
80175;SDS011;69501;42.124;24.722;2023-05-10T02:59:30;6.90;;;6.03;;
80175;SDS011;69501;42.124;24.722;2023-05-10T03:01:57;8.50;;;6.43;;
80175;SDS011;69501;42.124;24.722;2023-05-10T03:04:25;11.35;;;6.55;;
80175;SDS011;69501;42.124;24.722;2023-05-10T03:06:51;6.95;;;6.05;;
80175;SDS011;69501;42.124;24.722;2023-05-10T03:09:17;7.75;;;5.80;;
80175;SDS011;69501;42.124;24.722;2023-05-10T03:17:29;7.63;;;5.82;;
80175;SDS011;69501;42.124;24.722;2023-05-10T03:20:10;7.50;;;6.28;;
80175;SDS011;69501;42.124;24.722;2023-05-10T03:22:38;7.53;;;6.57;;
80175;SDS011;69501;42.124;24.722;2023-05-10T03:25:10;7.57;;;6.88;;
80175;SDS011;69501;42.124;24.722;2023-05-10T03:27:38;7.22;;;6.53;;
80175;SDS011;69501;42.124;24.722;2023-05-10T03:30:07;7.60;;;6.75;;
80175;SDS011;69501;42.124;24.722;2023-05-10T03:32:35;10.52;;;7.03;;
80175;SDS011;69501;42.124;24.722;2023-05-10T03:35:05;7.50;;;6.80;;
80175;SDS011;69501;42.124;24.722;2023-05-10T03:37:32;7.72;;;6.75;;
80175;SDS011;69501;42.124;24.722;2023-05-10T03:39:58;8.57;;;7.63;;
80175;SDS011;69501;42.124;24.722;2023-05-10T03:42:23;10.32;;;7.90;;
80175;SDS011;69501;42.124;24.722;2023-05-10T03:44:49;8.02;;;6.65;;
80175;SDS011;69501;42.124;24.722;2023-05-10T03:47:15;11.55;;;9.35;;
80175;SDS011;69501;42.124;24.722;2023-05-10T03:49:40;9.50;;;7.38;;
80175;SDS011;69501;42.124;24.722;2023-05-10T03:52:06;8.85;;;7.00;;
80175;SDS011;69501;42.124;24.722;2023-05-10T03:54:32;8.50;;;7.00;;
80175;SDS011;69501;42.124;24.722;2023-05-10T03:56:57;11.73;;;7.97;;
80175;SDS011;69501;42.124;24.722;2023-05-10T03:59:23;10.93;;;9.85;;
80175;SDS011;69501;42.124;24.722;2023-05-10T04:01:49;14.07;;;9.77;;
80175;SDS011;69501;42.124;24.722;2023-05-10T04:04:14;10.75;;;8.48;;
80175;SDS011;69501;42.124;24.722;2023-05-10T04:06:40;8.35;;;7.53;;
80175;SDS011;69501;42.124;24.722;2023-05-10T04:09:06;12.32;;;8.50;;
80175;SDS011;69501;42.124;24.722;2023-05-10T04:11:31;13.63;;;9.07;;
80175;SDS011;69501;42.124;24.722;2023-05-10T04:13:57;10.65;;;8.63;;
80175;SDS011;69501;42.124;24.722;2023-05-10T04:16:23;11.40;;;8.60;;
80175;SDS011;69501;42.124;24.722;2023-05-10T04:18:48;13.90;;;8.00;;
80175;SDS011;69501;42.124;24.722;2023-05-10T04:21:14;8.25;;;7.45;;
80175;SDS011;69501;42.124;24.722;2023-05-10T04:23:40;9.10;;;8.30;;
80175;SDS011;69501;42.124;24.722;2023-05-10T04:26:06;15.25;;;9.00;;
80175;SDS011;69501;42.124;24.722;2023-05-10T04:28:32;16.23;;;10.15;;
80175;SDS011;69501;42.124;24.722;2023-05-10T04:31:01;14.38;;;10.18;;
80175;SDS011;69501;42.124;24.722;2023-05-10T04:33:31;13.48;;;11.98;;
80175;SDS011;69501;42.124;24.722;2023-05-10T04:35:57;13.02;;;9.43;;
80175;SDS011;69501;42.124;24.722;2023-05-10T04:38:23;11.57;;;8.77;;
80175;SDS011;69501;42.124;24.722;2023-05-10T04:40:48;14.98;;;10.05;;
80175;SDS011;69501;42.124;24.722;2023-05-10T04:43:14;15.57;;;9.65;;
80175;SDS011;69501;42.124;24.722;2023-05-10T04:45:40;17.30;;;11.60;;
80175;SDS011;69501;42.124;24.722;2023-05-10T04:48:05;16.17;;;12.02;;
80175;SDS011;69501;42.124;24.722;2023-05-10T04:50:32;14.32;;;10.52;;
80175;SDS011;69501;42.124;24.722;2023-05-10T04:52:58;14.52;;;8.40;;
80175;SDS011;69501;42.124;24.722;2023-05-10T04:55:24;16.50;;;8.80;;
80175;SDS011;69501;42.124;24.722;2023-05-10T04:57:50;11.77;;;7.32;;
80175;SDS011;69501;42.124;24.722;2023-05-10T05:00:15;14.77;;;10.18;;
80175;SDS011;69501;42.124;24.722;2023-05-10T05:02:44;15.02;;;10.43;;
80175;SDS011;69501;42.124;24.722;2023-05-10T05:05:11;12.82;;;10.32;;
80175;SDS011;69501;42.124;24.722;2023-05-10T05:07:37;14.85;;;10.82;;
80175;SDS011;69501;42.124;24.722;2023-05-10T05:10:03;12.13;;;9.57;;
80175;SDS011;69501;42.124;24.722;2023-05-10T05:12:30;11.55;;;9.15;;
80175;SDS011;69501;42.124;24.722;2023-05-10T05:14:56;11.00;;;9.60;;
80175;SDS011;69501;42.124;24.722;2023-05-10T05:17:22;95.22;;;81.70;;
80175;SDS011;69501;42.124;24.722;2023-05-10T05:19:47;135.30;;;83.85;;
80175;SDS011;69501;42.124;24.722;2023-05-10T05:22:13;60.20;;;44.95;;
80175;SDS011;69501;42.124;24.722;2023-05-10T05:24:39;53.78;;;41.00;;
80175;SDS011;69501;42.124;24.722;2023-05-10T05:27:04;40.10;;;33.63;;
80175;SDS011;69501;42.124;24.722;2023-05-10T05:29:31;36.47;;;30.02;;
80175;SDS011;69501;42.124;24.722;2023-05-10T05:31:56;38.17;;;28.27;;
80175;SDS011;69501;42.124;24.722;2023-05-10T05:34:22;26.83;;;21.58;;
80175;SDS011;69501;42.124;24.722;2023-05-10T05:36:49;24.05;;;19.33;;
80175;SDS011;69501;42.124;24.722;2023-05-10T05:39:15;20.58;;;16.33;;
80175;SDS011;69501;42.124;24.722;2023-05-10T05:41:40;20.08;;;14.32;;
80175;SDS011;69501;42.124;24.722;2023-05-10T05:44:06;17.20;;;13.65;;
80175;SDS011;69501;42.124;24.722;2023-05-10T05:46:31;16.92;;;11.95;;
80175;SDS011;69501;42.124;24.722;2023-05-10T05:48:57;13.77;;;12.20;;
80175;SDS011;69501;42.124;24.722;2023-05-10T05:51:23;16.55;;;12.40;;
80175;SDS011;69501;42.124;24.722;2023-05-10T05:53:48;16.50;;;12.52;;
80175;SDS011;69501;42.124;24.722;2023-05-10T05:56:14;13.35;;;11.38;;
80175;SDS011;69501;42.124;24.722;2023-05-10T05:58:40;13.68;;;9.65;;
80175;SDS011;69501;42.124;24.722;2023-05-10T06:01:05;10.23;;;9.02;;
80175;SDS011;69501;42.124;24.722;2023-05-10T06:03:31;12.50;;;8.50;;
80175;SDS011;69501;42.124;24.722;2023-05-10T06:05:57;8.68;;;7.47;;
80175;SDS011;69501;42.124;24.722;2023-05-10T06:08:23;8.48;;;6.85;;
80175;SDS011;69501;42.124;24.722;2023-05-10T06:10:48;7.63;;;6.63;;
80175;SDS011;69501;42.124;24.722;2023-05-10T06:13:14;12.13;;;6.68;;
80175;SDS011;69501;42.124;24.722;2023-05-10T06:15:40;8.77;;;6.43;;
80175;SDS011;69501;42.124;24.722;2023-05-10T06:18:06;7.07;;;6.47;;
80175;SDS011;69501;42.124;24.722;2023-05-10T06:20:31;6.32;;;5.80;;
80175;SDS011;69501;42.124;24.722;2023-05-10T06:22:57;13.02;;;5.07;;
80175;SDS011;69501;42.124;24.722;2023-05-10T06:25:23;7.43;;;5.95;;
80175;SDS011;69501;42.124;24.722;2023-05-10T06:27:49;7.07;;;5.40;;
80175;SDS011;69501;42.124;24.722;2023-05-10T06:30:15;6.47;;;5.80;;
80175;SDS011;69501;42.124;24.722;2023-05-10T06:32:41;7.90;;;5.63;;
80175;SDS011;69501;42.124;24.722;2023-05-10T06:35:08;12.10;;;7.32;;
80175;SDS011;69501;42.124;24.722;2023-05-10T06:37:34;9.93;;;6.43;;
80175;SDS011;69501;42.124;24.722;2023-05-10T06:40:00;9.00;;;6.32;;
80175;SDS011;69501;42.124;24.722;2023-05-10T06:42:26;6.97;;;5.93;;
80175;SDS011;69501;42.124;24.722;2023-05-10T06:44:52;8.00;;;5.82;;
80175;SDS011;69501;42.124;24.722;2023-05-10T06:47:18;10.13;;;5.72;;
80175;SDS011;69501;42.124;24.722;2023-05-10T06:49:44;7.60;;;6.82;;
80175;SDS011;69501;42.124;24.722;2023-05-10T06:52:09;6.55;;;5.88;;
80175;SDS011;69501;42.124;24.722;2023-05-10T06:54:35;10.48;;;6.03;;
80175;SDS011;69501;42.124;24.722;2023-05-10T06:57:01;10.13;;;5.22;;
80175;SDS011;69501;42.124;24.722;2023-05-10T06:59:28;8.02;;;5.15;;
80175;SDS011;69501;42.124;24.722;2023-05-10T07:01:53;5.53;;;5.03;;
80175;SDS011;69501;42.124;24.722;2023-05-10T07:04:19;5.63;;;4.82;;
80175;SDS011;69501;42.124;24.722;2023-05-10T07:06:45;6.47;;;5.30;;
80175;SDS011;69501;42.124;24.722;2023-05-10T07:09:11;7.68;;;5.30;;
80175;SDS011;69501;42.124;24.722;2023-05-10T07:11:38;7.50;;;4.85;;
80175;SDS011;69501;42.124;24.722;2023-05-10T07:14:04;5.72;;;5.20;;
80175;SDS011;69501;42.124;24.722;2023-05-10T07:16:30;8.95;;;6.85;;
80175;SDS011;69501;42.124;24.722;2023-05-10T07:18:55;8.02;;;6.50;;
80175;SDS011;69501;42.124;24.722;2023-05-10T07:21:21;5.85;;;5.13;;
80175;SDS011;69501;42.124;24.722;2023-05-10T07:23:49;7.18;;;5.07;;
80175;SDS011;69501;42.124;24.722;2023-05-10T07:26:15;8.02;;;4.90;;
80175;SDS011;69501;42.124;24.722;2023-05-10T07:28:41;6.65;;;4.57;;
80175;SDS011;69501;42.124;24.722;2023-05-10T07:31:07;4.85;;;4.20;;
80175;SDS011;69501;42.124;24.722;2023-05-10T07:33:32;7.45;;;4.70;;
80175;SDS011;69501;42.124;24.722;2023-05-10T07:35:58;5.57;;;4.50;;
80175;SDS011;69501;42.124;24.722;2023-05-10T07:38:23;5.90;;;4.05;;
80175;SDS011;69501;42.124;24.722;2023-05-10T07:40:49;4.80;;;4.40;;
80175;SDS011;69501;42.124;24.722;2023-05-10T07:43:15;5.40;;;4.20;;
80175;SDS011;69501;42.124;24.722;2023-05-10T07:45:40;5.72;;;3.83;;
80175;SDS011;69501;42.124;24.722;2023-05-10T07:48:06;7.28;;;3.88;;
80175;SDS011;69501;42.124;24.722;2023-05-10T07:50:32;7.10;;;3.75;;
80175;SDS011;69501;42.124;24.722;2023-05-10T07:52:58;7.00;;;4.45;;
80175;SDS011;69501;42.124;24.722;2023-05-10T07:55:23;5.47;;;4.40;;
80175;SDS011;69501;42.124;24.722;2023-05-10T07:57:49;4.95;;;4.45;;
80175;SDS011;69501;42.124;24.722;2023-05-10T08:00:16;9.65;;;4.68;;
80175;SDS011;69501;42.124;24.722;2023-05-10T08:02:43;6.57;;;4.75;;
80175;SDS011;69501;42.124;24.722;2023-05-10T08:05:09;5.50;;;4.95;;
80175;SDS011;69501;42.124;24.722;2023-05-10T08:07:35;5.25;;;4.05;;
80175;SDS011;69501;42.124;24.722;2023-05-10T08:10:01;5.50;;;4.55;;
80175;SDS011;69501;42.124;24.722;2023-05-10T08:12:27;5.95;;;4.10;;
80175;SDS011;69501;42.124;24.722;2023-05-10T08:14:53;5.72;;;3.63;;
80175;SDS011;69501;42.124;24.722;2023-05-10T08:17:19;7.13;;;4.30;;
80175;SDS011;69501;42.124;24.722;2023-05-10T08:19:44;4.75;;;4.25;;
80175;SDS011;69501;42.124;24.722;2023-05-10T08:22:10;5.25;;;3.72;;
80175;SDS011;69501;42.124;24.722;2023-05-10T08:24:36;8.10;;;4.15;;
80175;SDS011;69501;42.124;24.722;2023-05-10T08:27:04;3.92;;;3.50;;
80175;SDS011;69501;42.124;24.722;2023-05-10T08:29:30;4.38;;;3.97;;
80175;SDS011;69501;42.124;24.722;2023-05-10T08:31:56;3.95;;;3.45;;
80175;SDS011;69501;42.124;24.722;2023-05-10T08:34:21;8.82;;;4.07;;
80175;SDS011;69501;42.124;24.722;2023-05-10T08:36:47;3.85;;;3.55;;
80175;SDS011;69501;42.124;24.722;2023-05-10T08:39:13;5.75;;;4.22;;
80175;SDS011;69501;42.124;24.722;2023-05-10T08:41:39;4.35;;;3.90;;
80175;SDS011;69501;42.124;24.722;2023-05-10T08:44:05;7.22;;;3.53;;
80175;SDS011;69501;42.124;24.722;2023-05-10T08:46:33;4.20;;;3.55;;
80175;SDS011;69501;42.124;24.722;2023-05-10T08:49:03;5.15;;;3.70;;
80175;SDS011;69501;42.124;24.722;2023-05-10T08:51:31;6.20;;;3.58;;
80175;SDS011;69501;42.124;24.722;2023-05-10T08:54:01;4.40;;;4.05;;
80175;SDS011;69501;42.124;24.722;2023-05-10T08:56:30;8.38;;;4.20;;
80175;SDS011;69501;42.124;24.722;2023-05-10T08:58:56;4.05;;;3.22;;
80175;SDS011;69501;42.124;24.722;2023-05-10T09:01:22;5.20;;;3.90;;
80175;SDS011;69501;42.124;24.722;2023-05-10T09:03:49;7.95;;;3.75;;
80175;SDS011;69501;42.124;24.722;2023-05-10T09:06:16;4.97;;;3.53;;
80175;SDS011;69501;42.124;24.722;2023-05-10T09:08:42;7.78;;;3.72;;
80175;SDS011;69501;42.124;24.722;2023-05-10T09:11:09;4.38;;;4.07;;
80175;SDS011;69501;42.124;24.722;2023-05-10T09:13:36;5.45;;;4.35;;
80175;SDS011;69501;42.124;24.722;2023-05-10T09:16:02;4.70;;;3.90;;
80175;SDS011;69501;42.124;24.722;2023-05-10T09:18:28;9.73;;;4.35;;
80175;SDS011;69501;42.124;24.722;2023-05-10T09:20:54;5.65;;;4.18;;
80175;SDS011;69501;42.124;24.722;2023-05-10T09:23:20;4.30;;;3.80;;
80175;SDS011;69501;42.124;24.722;2023-05-10T09:25:46;4.47;;;4.07;;
80175;SDS011;69501;42.124;24.722;2023-05-10T09:28:12;4.43;;;3.55;;
80175;SDS011;69501;42.124;24.722;2023-05-10T09:30:37;6.22;;;4.38;;
80175;SDS011;69501;42.124;24.722;2023-05-10T09:33:03;5.75;;;4.28;;
80175;SDS011;69501;42.124;24.722;2023-05-10T09:35:30;8.65;;;4.10;;
80175;SDS011;69501;42.124;24.722;2023-05-10T09:37:57;7.57;;;3.75;;
80175;SDS011;69501;42.124;24.722;2023-05-10T09:40:26;6.88;;;3.42;;
80175;SDS011;69501;42.124;24.722;2023-05-10T09:42:53;3.40;;;3.20;;
80175;SDS011;69501;42.124;24.722;2023-05-10T09:45:20;4.43;;;4.00;;
80175;SDS011;69501;42.124;24.722;2023-05-10T09:47:48;9.35;;;3.78;;
80175;SDS011;69501;42.124;24.722;2023-05-10T09:50:13;5.15;;;3.80;;
80175;SDS011;69501;42.124;24.722;2023-05-10T09:52:49;4.22;;;3.65;;
80175;SDS011;69501;42.124;24.722;2023-05-10T09:55:20;10.88;;;4.53;;
80175;SDS011;69501;42.124;24.722;2023-05-10T09:58:05;6.68;;;3.63;;
80175;SDS011;69501;42.124;24.722;2023-05-10T10:00:38;4.28;;;3.70;;
80175;SDS011;69501;42.124;24.722;2023-05-10T10:03:05;3.72;;;3.40;;
80175;SDS011;69501;42.124;24.722;2023-05-10T10:05:36;3.65;;;3.30;;
80175;SDS011;69501;42.124;24.722;2023-05-10T10:08:05;5.13;;;3.38;;
80175;SDS011;69501;42.124;24.722;2023-05-10T10:10:31;4.25;;;3.78;;
80175;SDS011;69501;42.124;24.722;2023-05-10T10:12:58;4.05;;;3.67;;
80175;SDS011;69501;42.124;24.722;2023-05-10T10:15:25;3.63;;;3.38;;
80175;SDS011;69501;42.124;24.722;2023-05-10T10:17:52;6.78;;;4.07;;
80175;SDS011;69501;42.124;24.722;2023-05-10T10:20:18;5.00;;;3.45;;
80175;SDS011;69501;42.124;24.722;2023-05-10T10:22:45;9.20;;;3.72;;
80175;SDS011;69501;42.124;24.722;2023-05-10T10:25:12;5.35;;;3.60;;
80175;SDS011;69501;42.124;24.722;2023-05-10T10:33:01;4.40;;;3.60;;
80175;SDS011;69501;42.124;24.722;2023-05-10T10:35:35;7.70;;;3.93;;
80175;SDS011;69501;42.124;24.722;2023-05-10T10:38:01;4.60;;;3.58;;
80175;SDS011;69501;42.124;24.722;2023-05-10T10:40:28;5.07;;;3.47;;
80175;SDS011;69501;42.124;24.722;2023-05-10T10:42:55;4.18;;;3.88;;
80175;SDS011;69501;42.124;24.722;2023-05-10T10:45:22;5.25;;;3.97;;
80175;SDS011;69501;42.124;24.722;2023-05-10T10:50:51;10.10;;;5.25;;
80175;SDS011;69501;42.124;24.722;2023-05-10T10:53:22;7.20;;;5.20;;
80175;SDS011;69501;42.124;24.722;2023-05-10T10:55:53;10.77;;;5.78;;
80175;SDS011;69501;42.124;24.722;2023-05-10T10:58:35;6.00;;;5.05;;
80175;SDS011;69501;42.124;24.722;2023-05-10T11:01:15;5.22;;;4.40;;
80175;SDS011;69501;42.124;24.722;2023-05-10T11:06:40;5.10;;;4.55;;
80175;SDS011;69501;42.124;24.722;2023-05-10T11:09:07;4.32;;;4.03;;
80175;SDS011;69501;42.124;24.722;2023-05-10T11:11:34;4.43;;;3.85;;
80175;SDS011;69501;42.124;24.722;2023-05-10T11:14:04;4.68;;;4.07;;
80175;SDS011;69501;42.124;24.722;2023-05-10T11:16:44;4.13;;;3.83;;
80175;SDS011;69501;42.124;24.722;2023-05-10T11:19:10;5.63;;;3.97;;
80175;SDS011;69501;42.124;24.722;2023-05-10T11:24:30;4.82;;;4.03;;
80175;SDS011;69501;42.124;24.722;2023-05-10T11:26:56;5.68;;;4.38;;
80175;SDS011;69501;42.124;24.722;2023-05-10T11:29:21;4.13;;;3.78;;
80175;SDS011;69501;42.124;24.722;2023-05-10T11:31:48;4.03;;;3.45;;
80175;SDS011;69501;42.124;24.722;2023-05-10T11:34:30;4.40;;;4.00;;
80175;SDS011;69501;42.124;24.722;2023-05-10T11:36:59;4.15;;;3.80;;
80175;SDS011;69501;42.124;24.722;2023-05-10T11:39:25;7.63;;;4.13;;
80175;SDS011;69501;42.124;24.722;2023-05-10T11:41:55;4.47;;;4.03;;
80175;SDS011;69501;42.124;24.722;2023-05-10T11:44:22;4.43;;;4.07;;
80175;SDS011;69501;42.124;24.722;2023-05-10T11:46:48;5.80;;;3.35;;
80175;SDS011;69501;42.124;24.722;2023-05-10T11:49:14;3.92;;;3.45;;
80175;SDS011;69501;42.124;24.722;2023-05-10T11:51:40;3.40;;;3.20;;
80175;SDS011;69501;42.124;24.722;2023-05-10T11:54:08;4.03;;;3.55;;
80175;SDS011;69501;42.124;24.722;2023-05-10T11:56:36;5.88;;;3.63;;
80175;SDS011;69501;42.124;24.722;2023-05-10T11:59:03;4.43;;;4.00;;
80175;SDS011;69501;42.124;24.722;2023-05-10T12:01:29;4.20;;;3.90;;
80175;SDS011;69501;42.124;24.722;2023-05-10T12:03:56;5.28;;;3.75;;
80175;SDS011;69501;42.124;24.722;2023-05-10T12:06:26;5.13;;;4.60;;
80175;SDS011;69501;42.124;24.722;2023-05-10T12:08:54;4.00;;;3.70;;
80175;SDS011;69501;42.124;24.722;2023-05-10T12:11:20;5.78;;;4.30;;
80175;SDS011;69501;42.124;24.722;2023-05-10T12:13:49;4.65;;;4.20;;
80175;SDS011;69501;42.124;24.722;2023-05-10T12:16:16;4.45;;;4.07;;
80175;SDS011;69501;42.124;24.722;2023-05-10T12:18:42;4.15;;;3.75;;
80175;SDS011;69501;42.124;24.722;2023-05-10T12:21:11;4.13;;;3.83;;
80175;SDS011;69501;42.124;24.722;2023-05-10T12:23:38;4.03;;;3.72;;
80175;SDS011;69501;42.124;24.722;2023-05-10T12:26:04;4.50;;;4.07;;
80175;SDS011;69501;42.124;24.722;2023-05-10T12:28:31;6.43;;;4.72;;
80175;SDS011;69501;42.124;24.722;2023-05-10T12:30:57;5.00;;;4.50;;
80175;SDS011;69501;42.124;24.722;2023-05-10T12:33:24;4.90;;;4.55;;
80175;SDS011;69501;42.124;24.722;2023-05-10T12:35:54;5.38;;;5.00;;
80175;SDS011;69501;42.124;24.722;2023-05-10T12:38:27;6.45;;;5.75;;
80175;SDS011;69501;42.124;24.722;2023-05-10T12:40:59;7.80;;;5.10;;
80175;SDS011;69501;42.124;24.722;2023-05-10T12:43:25;5.32;;;4.90;;
80175;SDS011;69501;42.124;24.722;2023-05-10T12:45:51;5.97;;;5.57;;
80175;SDS011;69501;42.124;24.722;2023-05-10T12:48:17;6.13;;;5.60;;
80175;SDS011;69501;42.124;24.722;2023-05-10T12:50:43;6.13;;;5.50;;
80175;SDS011;69501;42.124;24.722;2023-05-10T12:53:08;7.15;;;6.55;;
80175;SDS011;69501;42.124;24.722;2023-05-10T12:55:34;7.70;;;6.03;;
80175;SDS011;69501;42.124;24.722;2023-05-10T12:58:00;7.93;;;6.32;;
80175;SDS011;69501;42.124;24.722;2023-05-10T13:00:25;8.07;;;6.47;;
80175;SDS011;69501;42.124;24.722;2023-05-10T13:02:51;7.18;;;6.47;;
80175;SDS011;69501;42.124;24.722;2023-05-10T13:05:18;7.70;;;7.20;;
80175;SDS011;69501;42.124;24.722;2023-05-10T13:07:43;6.70;;;6.10;;
80175;SDS011;69501;42.124;24.722;2023-05-10T13:10:09;7.60;;;6.65;;
80175;SDS011;69501;42.124;24.722;2023-05-10T13:12:35;11.95;;;6.63;;
80175;SDS011;69501;42.124;24.722;2023-05-10T13:15:01;6.50;;;6.00;;
80175;SDS011;69501;42.124;24.722;2023-05-10T13:17:28;6.78;;;5.80;;
80175;SDS011;69501;42.124;24.722;2023-05-10T13:19:54;5.63;;;5.22;;
80175;SDS011;69501;42.124;24.722;2023-05-10T13:22:20;5.97;;;5.18;;
80175;SDS011;69501;42.124;24.722;2023-05-10T13:24:45;6.00;;;5.47;;
80175;SDS011;69501;42.124;24.722;2023-05-10T13:27:11;5.38;;;5.03;;
80175;SDS011;69501;42.124;24.722;2023-05-10T13:29:37;5.55;;;5.18;;
80175;SDS011;69501;42.124;24.722;2023-05-10T13:32:02;5.43;;;5.03;;
80175;SDS011;69501;42.124;24.722;2023-05-10T13:34:28;7.65;;;6.93;;
80175;SDS011;69501;42.124;24.722;2023-05-10T13:36:54;6.20;;;5.78;;
80175;SDS011;69501;42.124;24.722;2023-05-10T13:39:21;6.57;;;5.97;;
80175;SDS011;69501;42.124;24.722;2023-05-10T13:41:47;6.10;;;5.60;;
80175;SDS011;69501;42.124;24.722;2023-05-10T13:44:13;6.13;;;5.75;;
80175;SDS011;69501;42.124;24.722;2023-05-10T13:46:40;6.60;;;6.03;;
80175;SDS011;69501;42.124;24.722;2023-05-10T13:49:07;6.70;;;6.03;;
80175;SDS011;69501;42.124;24.722;2023-05-10T13:51:33;7.65;;;6.95;;
80175;SDS011;69501;42.124;24.722;2023-05-10T13:53:59;9.10;;;8.13;;
80175;SDS011;69501;42.124;24.722;2023-05-10T13:56:37;7.63;;;6.97;;
80175;SDS011;69501;42.124;24.722;2023-05-10T13:59:03;7.72;;;6.63;;
80175;SDS011;69501;42.124;24.722;2023-05-10T14:01:29;6.90;;;6.38;;
80175;SDS011;69501;42.124;24.722;2023-05-10T14:03:54;7.50;;;7.00;;
80175;SDS011;69501;42.124;24.722;2023-05-10T14:06:20;7.05;;;6.45;;
80175;SDS011;69501;42.124;24.722;2023-05-10T14:08:46;7.82;;;7.07;;
80175;SDS011;69501;42.124;24.722;2023-05-10T14:11:12;7.47;;;6.97;;
80175;SDS011;69501;42.124;24.722;2023-05-10T14:13:38;7.32;;;6.72;;
80175;SDS011;69501;42.124;24.722;2023-05-10T14:16:04;7.50;;;6.90;;
80175;SDS011;69501;42.124;24.722;2023-05-10T14:18:30;8.13;;;7.43;;
80175;SDS011;69501;42.124;24.722;2023-05-10T14:20:56;7.38;;;6.68;;
80175;SDS011;69501;42.124;24.722;2023-05-10T14:23:22;7.25;;;6.68;;
80175;SDS011;69501;42.124;24.722;2023-05-10T14:25:53;6.50;;;6.00;;
80175;SDS011;69501;42.124;24.722;2023-05-10T14:28:20;6.35;;;5.85;;
80175;SDS011;69501;42.124;24.722;2023-05-10T14:30:46;6.07;;;5.47;;
80175;SDS011;69501;42.124;24.722;2023-05-10T14:33:12;6.85;;;5.82;;
80175;SDS011;69501;42.124;24.722;2023-05-10T14:35:38;6.65;;;5.78;;
80175;SDS011;69501;42.124;24.722;2023-05-10T14:38:03;6.57;;;5.97;;
80175;SDS011;69501;42.124;24.722;2023-05-10T14:40:29;6.47;;;5.70;;
80175;SDS011;69501;42.124;24.722;2023-05-10T14:42:55;6.78;;;6.25;;
80175;SDS011;69501;42.124;24.722;2023-05-10T14:45:21;5.90;;;5.47;;
80175;SDS011;69501;42.124;24.722;2023-05-10T14:47:47;6.25;;;5.85;;
80175;SDS011;69501;42.124;24.722;2023-05-10T14:50:13;5.30;;;4.90;;
80175;SDS011;69501;42.124;24.722;2023-05-10T14:56:00;4.68;;;4.28;;
80175;SDS011;69501;42.124;24.722;2023-05-10T14:58:26;6.15;;;5.50;;
80175;SDS011;69501;42.124;24.722;2023-05-10T15:00:52;5.85;;;5.45;;
80175;SDS011;69501;42.124;24.722;2023-05-10T15:03:18;5.43;;;5.03;;
80175;SDS011;69501;42.124;24.722;2023-05-10T15:05:43;5.13;;;4.72;;
80175;SDS011;69501;42.124;24.722;2023-05-10T15:08:09;5.00;;;4.63;;